createdAt,value
2022-11-05T00:00:16.581Z,7.53
2022-11-05T00:03:01.351Z,7.90
2022-11-05T00:05:46.665Z,7.05
2022-11-05T00:08:32.425Z,8.10
2022-11-05T00:10:58.893Z,7.72
2022-11-05T00:13:44.050Z,7.97
2022-11-05T00:16:42.277Z,6.63
2022-11-05T00:19:09.981Z,7.65
2022-11-05T00:21:57.100Z,7.03
2022-11-05T00:24:42.783Z,6.20
2022-11-05T00:27:09.396Z,6.13
2022-11-05T00:29:36.084Z,7.53
2022-11-05T00:32:02.881Z,8.13
2022-11-05T00:34:29.307Z,7.38
2022-11-05T00:36:56.046Z,9.27
2022-11-05T00:39:22.520Z,9.73
2022-11-05T00:42:08.890Z,8.25
2022-11-05T00:44:54.062Z,8.10
2022-11-05T00:47:38.982Z,8.23
2022-11-05T00:50:05.725Z,9.05
2022-11-05T00:52:50.838Z,8.73
2022-11-05T00:55:17.276Z,8.80
2022-11-05T00:57:43.699Z,8.65
2022-11-05T01:00:11.251Z,9.02
2022-11-05T01:02:37.823Z,9.13
2022-11-05T01:05:04.616Z,9.13
2022-11-05T01:07:31.164Z,8.73
2022-11-05T01:09:57.626Z,9.45
2022-11-05T01:12:24.025Z,8.70
2022-11-05T01:14:50.419Z,8.43
2022-11-05T01:17:16.973Z,9.23
2022-11-05T01:19:43.422Z,8.88
2022-11-05T01:22:09.849Z,8.85
2022-11-05T01:24:36.256Z,9.82
2022-11-05T01:27:02.690Z,9.82
2022-11-05T01:29:29.101Z,9.70
2022-11-05T01:31:55.538Z,9.20
2022-11-05T01:34:21.958Z,8.60
2022-11-05T01:36:48.432Z,8.70
2022-11-05T01:39:15.236Z,8.80
2022-11-05T01:41:41.666Z,9.10
2022-11-05T01:44:47.826Z,9.23
2022-11-05T01:47:32.333Z,9.23
2022-11-05T01:50:02.872Z,8.57
2022-11-05T01:52:34.993Z,8.88
2022-11-05T01:55:02.907Z,9.13
2022-11-05T01:57:30.660Z,9.68
2022-11-05T02:00:00.022Z,9.23
2022-11-05T02:02:27.140Z,9.00
2022-11-05T02:05:06.663Z,8.88
2022-11-05T02:07:33.825Z,9.10
2022-11-05T02:10:08.867Z,9.25
2022-11-05T02:12:38.478Z,9.07
2022-11-05T02:15:06.343Z,8.93
2022-11-05T02:17:55.262Z,8.48
2022-11-05T02:20:26.433Z,7.63
2022-11-05T02:23:19.018Z,8.20
2022-11-05T02:26:16.527Z,8.25
2022-11-05T02:29:27.648Z,9.00
2022-11-05T02:31:54.018Z,8.82
2022-11-05T02:34:57.700Z,8.00
2022-11-05T02:37:27.091Z,7.80
2022-11-05T02:40:08.480Z,7.55
2022-11-05T02:42:39.593Z,8.15
2022-11-05T02:45:37.549Z,8.27
2022-11-05T02:48:30.733Z,7.77
2022-11-05T02:51:13.737Z,8.80
2022-11-05T02:54:03.489Z,7.88
2022-11-05T02:56:36.585Z,7.15
2022-11-05T02:59:03.017Z,7.47
2022-11-05T03:01:29.519Z,7.47
2022-11-05T03:04:00.695Z,8.90
2022-11-05T03:06:53.213Z,8.15
2022-11-05T03:10:05.747Z,8.15
2022-11-05T03:12:38.145Z,7.85
2022-11-05T03:15:39.404Z,7.40
2022-11-05T03:18:14.876Z,7.43
2022-11-05T03:20:57.096Z,8.32
2022-11-05T03:23:45.037Z,8.15
2022-11-05T03:26:18.422Z,8.30
2022-11-05T03:28:50.472Z,8.13
2022-11-05T03:31:19.469Z,7.25
2022-11-05T03:33:48.137Z,7.65
2022-11-05T03:36:21.730Z,8.25
2022-11-05T03:38:51.464Z,8.13
2022-11-05T03:41:20.352Z,7.67
2022-11-05T03:43:51.109Z,8.55
2022-11-05T03:46:30.555Z,8.13
2022-11-05T03:49:01.684Z,7.95
2022-11-05T03:51:48.429Z,8.63
2022-11-05T03:54:15.304Z,9.20
2022-11-05T03:56:51.972Z,8.77
2022-11-05T03:59:20.177Z,7.47
2022-11-05T04:01:47.958Z,9.05
2022-11-05T04:04:14.479Z,8.73
2022-11-05T04:06:59.556Z,9.03
2022-11-05T04:09:44.306Z,8.85
2022-11-05T04:12:29.697Z,8.65
2022-11-05T04:14:56.400Z,8.25
2022-11-05T04:17:22.853Z,8.90
2022-11-05T04:20:07.887Z,8.37
2022-11-05T04:22:54.264Z,8.50
2022-11-05T04:25:22.105Z,9.18
2022-11-05T04:27:49.141Z,8.45
2022-11-05T04:30:21.860Z,8.70
2022-11-05T04:33:00.921Z,8.50
2022-11-05T04:35:30.077Z,9.80
2022-11-05T04:37:56.852Z,9.50
2022-11-05T04:40:23.709Z,9.60
2022-11-05T04:42:50.185Z,9.13
2022-11-05T04:45:16.891Z,8.53
2022-11-05T04:47:43.312Z,8.57
2022-11-05T04:50:12.034Z,8.95
2022-11-05T04:52:39.354Z,7.53
2022-11-05T04:55:06.806Z,8.82
2022-11-05T04:57:33.433Z,8.10
2022-11-05T04:59:59.924Z,7.95
2022-11-05T05:02:26.548Z,8.15
2022-11-05T05:04:53.522Z,8.63
2022-11-05T05:07:19.941Z,8.60
2022-11-05T05:09:46.381Z,9.30
2022-11-05T05:12:12.860Z,8.65
2022-11-05T05:14:39.300Z,9.00
2022-11-05T05:17:05.851Z,9.70
2022-11-05T05:19:52.274Z,8.60
2022-11-05T05:22:18.723Z,8.40
2022-11-05T05:24:49.957Z,8.48
2022-11-05T05:27:18.921Z,9.00
2022-11-05T05:29:45.381Z,9.15
2022-11-05T05:32:11.801Z,10.30
2022-11-05T05:34:38.258Z,10.13
2022-11-05T05:37:04.848Z,10.13
2022-11-05T05:39:31.267Z,10.43
2022-11-05T05:41:57.701Z,10.50
2022-11-05T05:44:24.408Z,10.82
2022-11-05T05:46:50.806Z,11.17
2022-11-05T05:49:17.283Z,10.52
2022-11-05T05:51:43.755Z,9.68
2022-11-05T05:54:11.084Z,10.50
2022-11-05T05:56:37.522Z,10.27
2022-11-05T05:59:05.183Z,10.73
2022-11-05T06:01:31.841Z,9.90
2022-11-05T06:03:58.404Z,10.73
2022-11-05T06:06:24.876Z,9.63
2022-11-05T06:08:51.297Z,9.18
2022-11-05T06:11:17.833Z,9.07
2022-11-05T06:13:44.581Z,9.43
2022-11-05T06:16:11.069Z,9.77
2022-11-05T06:18:37.567Z,10.45
2022-11-05T06:21:10.169Z,9.98
2022-11-05T06:23:38.601Z,8.30
2022-11-05T06:26:07.469Z,9.60
2022-11-05T06:28:34.428Z,10.50
2022-11-05T06:31:01.382Z,10.88
2022-11-05T06:33:27.920Z,9.73
2022-11-05T06:35:54.967Z,10.80
2022-11-05T06:38:21.434Z,9.93
2022-11-05T06:40:47.855Z,10.60
2022-11-05T06:43:14.689Z,11.43
2022-11-05T06:45:41.390Z,11.65
2022-11-05T06:48:08.007Z,11.13
2022-11-05T06:50:34.583Z,9.23
2022-11-05T06:53:02.876Z,10.63
2022-11-05T06:55:31.311Z,10.20
2022-11-05T06:57:57.999Z,12.27
2022-11-05T07:00:24.906Z,11.97
2022-11-05T07:02:51.400Z,11.40
2022-11-05T07:05:18.092Z,10.75
2022-11-05T07:07:45.697Z,12.68
2022-11-05T07:10:15.223Z,12.63
2022-11-05T07:12:41.957Z,13.23
2022-11-05T07:15:09.620Z,12.48
2022-11-05T07:17:36.320Z,12.02
2022-11-05T07:20:03.849Z,12.52
2022-11-05T07:22:30.379Z,12.60
2022-11-05T07:24:56.798Z,12.00
2022-11-05T07:27:23.276Z,12.20
2022-11-05T07:29:49.731Z,11.55
2022-11-05T07:32:16.167Z,10.93
2022-11-05T07:34:42.759Z,11.15
2022-11-05T07:37:09.175Z,11.13
2022-11-05T07:39:35.610Z,10.95
2022-11-05T07:42:02.214Z,11.52
2022-11-05T07:44:28.646Z,12.05
2022-11-05T07:46:55.070Z,11.23
2022-11-05T07:49:21.517Z,11.40
2022-11-05T07:51:47.968Z,13.25
2022-11-05T07:54:14.401Z,11.25
2022-11-05T07:56:40.825Z,11.80
2022-11-05T07:59:07.569Z,10.77
2022-11-05T08:01:34.192Z,11.90
2022-11-05T08:04:00.694Z,11.35
2022-11-05T08:06:27.150Z,12.35
2022-11-05T08:08:53.537Z,12.10
2022-11-05T08:11:20.042Z,12.32
2022-11-05T08:13:46.648Z,13.23
2022-11-05T08:16:13.125Z,10.90
2022-11-05T08:18:39.582Z,13.23
2022-11-05T08:21:06.464Z,12.02
2022-11-05T08:23:33.435Z,12.82
2022-11-05T08:26:03.820Z,13.50
2022-11-05T08:28:30.313Z,11.55
2022-11-05T08:30:57.567Z,13.27
2022-11-05T08:33:25.138Z,12.75
2022-11-05T08:35:51.886Z,12.05
2022-11-05T08:38:19.677Z,12.90
2022-11-05T08:40:55.035Z,13.63
2022-11-05T08:43:22.484Z,12.98
2022-11-05T08:45:49.286Z,11.60
2022-11-05T08:48:18.354Z,12.75
2022-11-05T08:50:47.042Z,13.40
2022-11-05T08:53:14.420Z,12.77
2022-11-05T08:55:41.323Z,14.88
2022-11-05T08:58:12.541Z,13.27
2022-11-05T09:00:39.844Z,10.77
2022-11-05T09:03:08.215Z,12.43
2022-11-05T09:05:38.006Z,12.32
2022-11-05T09:08:08.962Z,10.90
2022-11-05T09:10:36.321Z,10.68
2022-11-05T09:13:04.232Z,11.52
2022-11-05T09:15:31.703Z,11.90
2022-11-05T09:17:58.125Z,10.18
2022-11-05T09:20:24.877Z,10.68
2022-11-05T09:22:51.602Z,10.90
2022-11-05T09:25:18.200Z,10.77
2022-11-05T09:27:44.762Z,10.20
2022-11-05T09:30:12.979Z,10.02
2022-11-05T09:32:39.648Z,10.57
2022-11-05T09:35:07.077Z,11.68
2022-11-05T09:37:33.688Z,10.68
2022-11-05T09:40:00.125Z,9.20
2022-11-05T09:42:39.521Z,10.00
2022-11-05T09:45:14.924Z,9.45
2022-11-05T09:47:47.220Z,9.70
2022-11-05T09:50:30.564Z,10.00
2022-11-05T09:52:57.790Z,10.40
2022-11-05T09:55:29.427Z,9.48
2022-11-05T09:58:14.364Z,9.07
2022-11-05T10:00:41.824Z,9.25
2022-11-05T10:03:15.513Z,7.75
2022-11-05T10:05:42.548Z,7.20
2022-11-05T10:08:19.808Z,8.32
2022-11-05T10:10:53.569Z,10.18
2022-11-05T10:13:23.433Z,9.32
2022-11-05T10:16:13.474Z,8.75
2022-11-05T10:18:42.848Z,9.43
2022-11-05T10:21:17.229Z,7.68
2022-11-05T10:23:45.428Z,8.13
2022-11-05T10:26:18.293Z,8.18
2022-11-05T10:28:44.712Z,7.88
2022-11-05T10:31:17.582Z,8.27
2022-11-05T10:33:54.391Z,8.20
2022-11-05T10:36:24.328Z,9.13
2022-11-05T10:38:51.504Z,9.85
2022-11-05T10:41:38.229Z,8.73
2022-11-05T10:44:04.933Z,9.43
2022-11-05T10:46:45.992Z,9.35
2022-11-05T10:49:21.670Z,10.20
2022-11-05T10:51:54.257Z,9.98
2022-11-05T10:54:23.271Z,9.25
2022-11-05T10:56:50.682Z,10.67
2022-11-05T10:59:21.537Z,10.10
2022-11-05T11:01:55.239Z,10.35
2022-11-05T11:04:25.331Z,11.02
2022-11-05T11:06:54.575Z,10.45
2022-11-05T11:09:24.369Z,9.20
2022-11-05T11:12:15.786Z,10.10
2022-11-05T11:14:42.208Z,9.93
2022-11-05T11:17:27.998Z,9.60
2022-11-05T11:20:25.271Z,9.82
2022-11-05T11:23:04.177Z,10.13
2022-11-05T11:25:41.479Z,9.43
2022-11-05T11:28:19.758Z,9.55
2022-11-05T11:30:55.052Z,9.18
2022-11-05T11:33:27.429Z,8.88
2022-11-05T11:35:54.208Z,9.10
2022-11-05T11:38:23.229Z,9.27
2022-11-05T11:40:50.246Z,10.35
2022-11-05T11:43:33.692Z,9.45
2022-11-05T11:46:05.057Z,8.60
2022-11-05T11:48:36.343Z,10.60
2022-11-05T11:51:29.091Z,9.65
2022-11-05T11:54:00.250Z,9.98
2022-11-05T11:56:27.703Z,9.68
2022-11-05T11:58:56.211Z,8.82
2022-11-05T12:01:31.722Z,10.27
2022-11-05T12:04:17.576Z,10.35
2022-11-05T12:06:56.104Z,8.90
2022-11-05T12:09:43.499Z,8.25
2022-11-05T12:12:14.090Z,8.57
2022-11-05T12:14:46.947Z,8.70
2022-11-05T12:17:22.226Z,8.43
2022-11-05T12:19:58.763Z,7.63
2022-11-05T12:22:43.208Z,8.40
2022-11-05T12:25:12.743Z,7.38
2022-11-05T12:27:39.117Z,8.17
2022-11-05T12:30:14.168Z,7.65
2022-11-05T12:32:57.930Z,7.22
2022-11-05T12:35:57.412Z,6.13
2022-11-05T12:38:52.551Z,6.85
2022-11-05T12:41:50.808Z,6.40
2022-11-05T12:45:04.801Z,7.20
2022-11-05T12:47:31.169Z,7.13
2022-11-05T12:50:20.336Z,6.57
2022-11-05T12:52:58.950Z,7.32
2022-11-05T12:55:30.834Z,7.43
2022-11-05T12:58:15.228Z,7.75
2022-11-05T13:00:47.811Z,7.05
2022-11-05T13:03:27.335Z,8.23
2022-11-05T13:06:17.307Z,7.13
2022-11-05T13:08:51.433Z,9.33
2022-11-05T13:11:26.618Z,8.27
2022-11-05T13:14:06.058Z,6.63
2022-11-05T13:16:43.744Z,7.07
2022-11-05T13:19:22.975Z,7.60
2022-11-05T13:21:59.509Z,7.10
2022-11-05T13:24:37.692Z,6.40
2022-11-05T13:27:11.820Z,7.43
2022-11-05T13:29:56.698Z,7.22
2022-11-05T13:32:31.618Z,7.10
2022-11-05T13:35:00.971Z,6.23
2022-11-05T13:37:49.456Z,6.50
2022-11-05T13:40:24.810Z,5.80
2022-11-05T13:43:10.355Z,6.60
2022-11-05T13:46:06.374Z,6.72
2022-11-05T13:48:49.107Z,7.47
2022-11-05T13:51:39.196Z,7.40
2022-11-05T13:54:34.747Z,7.07
2022-11-05T13:57:01.110Z,6.10
2022-11-05T13:59:58.728Z,6.53
2022-11-05T14:02:36.618Z,7.50
2022-11-05T14:05:05.193Z,8.82
2022-11-05T14:07:46.532Z,8.23
2022-11-05T14:10:38.773Z,8.05
2022-11-05T14:13:22.872Z,8.43
2022-11-05T14:16:02.022Z,8.50
2022-11-05T14:18:53.332Z,7.88
2022-11-05T14:21:25.756Z,6.93
2022-11-05T14:23:57.620Z,8.63
2022-11-05T14:26:29.539Z,8.05
2022-11-05T14:28:58.823Z,8.13
2022-11-05T14:34:56.336Z,7.18
2022-11-05T14:37:26.392Z,7.78
2022-11-05T14:39:54.891Z,8.23
2022-11-05T14:42:30.863Z,7.80
2022-11-05T14:45:02.261Z,8.13
2022-11-05T14:47:33.365Z,7.90
2022-11-05T14:50:27.553Z,7.18
2022-11-05T14:52:57.098Z,6.63
2022-11-05T14:55:34.388Z,6.57
2022-11-05T14:58:04.193Z,6.82
2022-11-05T15:00:36.552Z,5.00
2022-11-05T15:03:25.055Z,5.65
2022-11-05T15:05:52.913Z,6.40
2022-11-05T15:08:49.953Z,6.20
2022-11-05T15:11:40.600Z,5.90
2022-11-05T15:14:22.472Z,7.00
2022-11-05T15:17:08.521Z,6.30
2022-11-05T15:19:37.332Z,6.72
2022-11-05T15:22:10.969Z,7.00
2022-11-05T15:24:41.541Z,6.82
2022-11-05T15:27:30.787Z,7.57
2022-11-05T15:29:57.376Z,7.93
2022-11-05T15:32:25.922Z,6.53
2022-11-05T15:34:54.012Z,7.30
2022-11-05T15:37:21.901Z,6.85
2022-11-05T15:39:50.069Z,6.50
2022-11-05T15:42:25.803Z,6.80
2022-11-05T15:44:53.280Z,6.35
2022-11-05T15:47:24.203Z,6.27
2022-11-05T15:49:54.108Z,10.55
2022-11-05T15:52:23.523Z,14.68
2022-11-05T15:55:14.804Z,9.77
2022-11-05T15:57:50.873Z,36.50
2022-11-05T16:00:19.984Z,32.20
2022-11-05T16:02:59.298Z,24.20
2022-11-05T16:05:28.242Z,18.73
2022-11-05T16:07:58.377Z,12.52
2022-11-05T16:10:29.898Z,8.80
2022-11-05T16:12:56.847Z,8.73
2022-11-05T16:15:26.831Z,8.38
2022-11-05T16:17:58.680Z,8.88
2022-11-05T16:20:32.783Z,8.88
2022-11-05T16:23:21.882Z,7.45
2022-11-05T16:25:48.512Z,7.67
2022-11-05T16:28:17.652Z,6.50
2022-11-05T16:30:53.369Z,7.10
2022-11-05T16:33:19.869Z,6.13
2022-11-05T16:35:49.188Z,7.03
2022-11-05T16:38:16.717Z,8.03
2022-11-05T16:40:43.197Z,7.45
2022-11-05T16:43:22.933Z,6.70
2022-11-05T16:45:52.705Z,6.97
2022-11-05T16:48:19.156Z,7.78
2022-11-05T16:50:46.308Z,6.67
2022-11-05T16:53:13.263Z,8.18
2022-11-05T16:55:42.014Z,7.82
2022-11-05T16:58:21.081Z,6.60
2022-11-05T17:00:52.647Z,6.53
2022-11-05T17:03:19.178Z,6.50
2022-11-05T17:05:46.476Z,6.78
2022-11-05T17:08:13.320Z,6.32
2022-11-05T17:10:40.118Z,6.93
2022-11-05T17:13:06.568Z,5.50
2022-11-05T17:15:36.833Z,7.20
2022-11-05T17:18:04.980Z,6.57
2022-11-05T17:20:40.847Z,6.35
2022-11-05T17:23:13.165Z,6.97
2022-11-05T17:25:41.340Z,7.30
2022-11-05T17:28:08.830Z,6.80
2022-11-05T17:30:36.214Z,7.40
2022-11-05T17:33:02.894Z,7.53
2022-11-05T17:35:29.372Z,7.45
2022-11-05T17:37:55.797Z,7.40
2022-11-05T17:40:23.398Z,6.20
2022-11-05T17:42:50.911Z,7.07
2022-11-05T17:45:17.992Z,5.97
2022-11-05T17:47:44.508Z,6.82
2022-11-05T17:50:14.101Z,6.93
2022-11-05T17:52:40.586Z,7.27
2022-11-05T17:55:16.043Z,6.78
2022-11-05T17:57:47.154Z,6.88
2022-11-05T18:00:16.319Z,6.72
2022-11-05T18:02:43.065Z,7.28
2022-11-05T18:05:11.045Z,6.80
2022-11-05T18:07:37.565Z,6.93
2022-11-05T18:10:05.249Z,7.20
2022-11-05T18:12:32.168Z,6.85
2022-11-05T18:14:58.683Z,7.28
2022-11-05T18:17:25.111Z,7.90
2022-11-05T18:19:51.550Z,7.60
2022-11-05T18:22:19.454Z,8.32
2022-11-05T18:24:46.755Z,8.50
2022-11-05T18:27:13.288Z,6.93
2022-11-05T18:29:39.744Z,7.17
2022-11-05T18:32:06.852Z,6.40
2022-11-05T18:34:33.329Z,7.07
2022-11-05T18:36:59.743Z,6.82
2022-11-05T18:39:26.245Z,7.07
2022-11-05T18:41:52.662Z,7.07
2022-11-05T18:44:22.814Z,7.25
2022-11-05T18:46:58.164Z,5.75
2022-11-05T18:49:25.623Z,7.60
2022-11-05T18:51:52.065Z,7.18
2022-11-05T18:54:18.523Z,7.30
2022-11-05T18:56:45.400Z,6.95
2022-11-05T19:02:00.857Z,7.20
2022-11-05T19:04:27.830Z,7.38
2022-11-05T19:06:54.352Z,7.07
2022-11-05T19:09:20.988Z,6.88
2022-11-05T19:11:47.654Z,6.30
2022-11-05T19:14:14.259Z,6.97
2022-11-05T19:16:40.840Z,7.75
2022-11-05T19:19:07.536Z,7.23
2022-11-05T19:21:34.026Z,7.25
2022-11-05T19:24:02.053Z,6.90
2022-11-05T19:26:29.447Z,7.13
2022-11-05T19:29:01.731Z,6.82
2022-11-05T19:31:28.475Z,7.23
2022-11-05T19:33:55.289Z,6.95
2022-11-05T19:36:23.873Z,6.97
2022-11-05T19:38:56.198Z,7.50
2022-11-05T19:41:23.176Z,7.10
2022-11-05T19:43:50.277Z,8.40
2022-11-05T19:46:18.700Z,7.43
2022-11-05T19:48:45.661Z,6.22
2022-11-05T19:51:22.288Z,7.43
2022-11-05T19:53:51.323Z,7.13
2022-11-05T19:56:20.917Z,7.17
2022-11-05T19:58:47.865Z,7.50
2022-11-05T20:01:15.993Z,7.85
2022-11-05T20:03:42.723Z,7.97
2022-11-05T20:06:13.433Z,7.45
2022-11-05T20:08:59.944Z,7.97
2022-11-05T20:11:27.006Z,8.00
2022-11-05T20:13:53.465Z,8.02
2022-11-05T20:16:36.733Z,7.53
2022-11-05T20:19:07.294Z,7.18
2022-11-05T20:21:34.948Z,7.87
2022-11-05T20:24:01.720Z,8.25
2022-11-05T20:26:28.748Z,7.53
2022-11-05T20:28:55.540Z,7.55
2022-11-05T20:31:21.990Z,8.30
2022-11-05T20:33:48.786Z,7.53
2022-11-05T20:36:18.057Z,7.70
2022-11-05T20:38:48.813Z,7.63
2022-11-05T20:41:15.907Z,7.10
2022-11-05T20:43:42.623Z,7.82
2022-11-05T20:46:12.528Z,7.97
2022-11-05T20:48:39.093Z,7.68
2022-11-05T20:51:08.155Z,8.05
2022-11-05T20:53:35.896Z,8.60
2022-11-05T20:56:07.609Z,8.45
2022-11-05T20:58:35.570Z,9.30
2022-11-05T21:01:02.456Z,8.10
2022-11-05T21:03:28.890Z,8.43
2022-11-05T21:05:59.984Z,7.97
2022-11-05T21:08:27.776Z,6.75
2022-11-05T21:10:55.515Z,9.13
2022-11-05T21:13:22.634Z,9.05
2022-11-05T21:15:51.097Z,7.53
2022-11-05T21:18:18.724Z,8.30
2022-11-05T21:20:46.144Z,8.20
2022-11-05T21:23:13.650Z,9.20
2022-11-05T21:25:41.772Z,8.82
2022-11-05T21:28:10.180Z,9.10
2022-11-05T21:30:38.382Z,8.40
2022-11-05T21:33:05.816Z,9.40
2022-11-05T21:35:32.339Z,8.87
2022-11-05T21:37:59.297Z,8.43
2022-11-05T21:40:26.010Z,8.43
2022-11-05T21:42:52.744Z,8.35
2022-11-05T21:45:19.179Z,8.60
2022-11-05T21:47:45.594Z,10.07
2022-11-05T21:50:12.036Z,8.23
2022-11-05T21:52:56.806Z,8.85
2022-11-05T21:55:43.029Z,8.27
2022-11-05T21:58:35.595Z,9.30
2022-11-05T22:01:03.001Z,7.60
2022-11-05T22:03:29.975Z,8.40
2022-11-05T22:05:56.853Z,8.32
2022-11-05T22:08:23.280Z,8.80
2022-11-05T22:10:49.702Z,8.02
2022-11-05T22:13:16.124Z,8.23
2022-11-05T22:15:42.549Z,8.90
2022-11-05T22:18:09.065Z,9.20
2022-11-05T22:20:38.674Z,9.00
2022-11-05T22:23:10.034Z,7.75
2022-11-05T22:25:37.663Z,7.63
2022-11-05T22:28:04.560Z,8.60
2022-11-05T22:30:36.606Z,7.93
2022-11-05T22:33:03.061Z,8.95
2022-11-05T22:35:29.612Z,9.70
2022-11-05T22:37:56.039Z,6.70
2022-11-05T22:40:24.126Z,7.95
2022-11-05T22:42:50.849Z,7.97
2022-11-05T22:45:17.297Z,7.55
2022-11-05T22:47:43.788Z,7.55
2022-11-05T22:50:10.688Z,8.47
2022-11-05T22:52:37.176Z,7.57
2022-11-05T22:55:06.112Z,8.35
2022-11-05T22:57:32.574Z,8.15
2022-11-05T22:59:58.988Z,8.82
2022-11-05T23:02:25.563Z,8.63
2022-11-05T23:04:52.201Z,7.35
2022-11-05T23:07:37.530Z,7.93
2022-11-05T23:10:22.621Z,8.40
2022-11-05T23:12:49.087Z,8.27
2022-11-05T23:15:34.218Z,9.40
2022-11-05T23:18:19.611Z,8.25
2022-11-05T23:21:04.563Z,9.15
2022-11-05T23:23:49.335Z,9.45
2022-11-05T23:26:34.252Z,9.40
2022-11-05T23:29:00.733Z,7.23
2022-11-05T23:31:45.701Z,8.45
2022-11-05T23:34:12.146Z,8.65
2022-11-05T23:36:57.024Z,8.73
2022-11-05T23:39:23.451Z,8.13
2022-11-05T23:42:08.527Z,8.80
2022-11-05T23:44:53.223Z,8.77
2022-11-05T23:47:38.238Z,8.65
2022-11-05T23:50:04.877Z,8.95
2022-11-05T23:52:31.296Z,8.50
2022-11-05T23:54:57.732Z,9.47
2022-11-05T23:57:24.157Z,8.88
2022-11-05T23:59:50.605Z,9.95
